Terminal Aerodrome Forecast
Issued by NWS Grand Forks, ND

Home | Current Version | Previous Version | Graphics & Text | Print | Product List | Glossary On
Versions: 1 2 3 4 5 6 7 8 9 10 11 12 13 14 15 16 17 18 19 20 21 22 23 24 25 26 27
000
FTUS43 KFGF 241038 AAB
TAFGFK
TAF AMD
KGFK 241038Z 2411/2506 35010KT 6SM BR SCT200
      TEMPO 2411/2413 3SM BR SCT006
     FM241400 36011KT P6SM SCT035
     FM250300 02007KT P6SM FEW100=

USA.gov is the U.S. government's official web portal to all federal, state and local government web resources and services.